createdAt,value
2023-03-08T00:02:00.045Z,-3.00
2023-03-08T00:04:30.661Z,-3.01
2023-03-08T00:07:01.196Z,-2.96
2023-03-08T00:09:31.800Z,-2.99
2023-03-08T00:12:02.349Z,-3.10
2023-03-08T00:14:32.942Z,-3.30
2023-03-08T00:17:05.162Z,-3.41
2023-03-08T00:19:35.878Z,-3.63
2023-03-08T00:22:06.516Z,-3.69
2023-03-08T00:24:37.246Z,-3.66
2023-03-08T00:27:07.991Z,-3.75
2023-03-08T00:29:38.541Z,-3.66
2023-03-08T00:32:10.968Z,-3.58
2023-03-08T00:34:47.163Z,-3.40
2023-03-08T00:37:18.624Z,-3.44
2023-03-08T00:39:54.584Z,-3.49
2023-03-08T00:42:25.978Z,-3.79
2023-03-08T00:44:56.796Z,-3.38
2023-03-08T00:47:29.077Z,-3.30
2023-03-08T00:49:59.518Z,-3.30
2023-03-08T00:52:30.292Z,-3.24
2023-03-08T00:55:00.813Z,-3.35
2023-03-08T00:57:32.362Z,-3.10
2023-03-08T01:00:03.080Z,-3.11
2023-03-08T01:02:35.611Z,-3.19
2023-03-08T01:05:06.133Z,-3.29
2023-03-08T01:07:36.736Z,-3.31
2023-03-08T01:10:07.721Z,-3.32
2023-03-08T01:12:38.846Z,-3.32
2023-03-08T01:15:10.544Z,-3.17
2023-03-08T01:17:42.744Z,-3.11
2023-03-08T01:20:14.418Z,-3.07
2023-03-08T01:22:48.946Z,-3.13
2023-03-08T01:25:19.959Z,-3.11
2023-03-08T01:27:50.450Z,-3.00
2023-03-08T01:30:21.200Z,-2.97
2023-03-08T01:32:53.914Z,-2.89
2023-03-08T01:35:24.488Z,-2.84
2023-03-08T01:37:55.720Z,-2.93
2023-03-08T01:40:26.343Z,-3.04
2023-03-08T01:42:56.890Z,-2.93
2023-03-08T01:46:12.229Z,-2.93
2023-03-08T01:48:48.469Z,-3.04
2023-03-08T01:51:23.524Z,-2.82
2023-03-08T01:53:55.478Z,-2.64
2023-03-08T01:56:27.790Z,-2.57
2023-03-08T01:59:00.194Z,-2.49
2023-03-08T02:01:31.137Z,-2.62
2023-03-08T02:04:03.528Z,-2.61
2023-03-08T02:06:34.065Z,-2.59
2023-03-08T02:09:06.358Z,-2.71
2023-03-08T02:11:39.473Z,-2.70
2023-03-08T02:14:10.547Z,-2.80
2023-03-08T02:16:41.233Z,-2.40
2023-03-08T02:19:19.622Z,-2.30
2023-03-08T02:21:50.180Z,-2.13
2023-03-08T02:24:26.372Z,-2.21
2023-03-08T02:27:04.288Z,-2.37
2023-03-08T02:29:35.000Z,-2.31
2023-03-08T02:32:05.499Z,-2.53
2023-03-08T02:34:36.124Z,-2.73
2023-03-08T02:37:06.830Z,-2.73
2023-03-08T02:39:39.029Z,-2.66
2023-03-08T02:42:09.906Z,-2.62
2023-03-08T02:44:40.436Z,-2.59
2023-03-08T02:47:11.684Z,-2.58
2023-03-08T02:49:42.197Z,-2.61
2023-03-08T02:52:12.843Z,-2.56
2023-03-08T02:54:44.876Z,-2.43
2023-03-08T02:57:15.406Z,-2.35
2023-03-08T02:59:45.906Z,-2.18
2023-03-08T03:02:16.451Z,-2.14
2023-03-08T03:04:47.147Z,-2.21
2023-03-08T03:07:17.606Z,-2.43
2023-03-08T03:09:49.821Z,-2.49
2023-03-08T03:12:20.374Z,-2.34
2023-03-08T03:14:50.939Z,-2.64
2023-03-08T03:17:21.428Z,-2.38
2023-03-08T03:19:51.969Z,-2.22
2023-03-08T03:22:22.540Z,-1.96
2023-03-08T03:24:55.335Z,-1.71
2023-03-08T03:27:26.014Z,-1.69
2023-03-08T03:29:56.647Z,-1.89
2023-03-08T03:32:27.277Z,-1.98
2023-03-08T03:34:58.001Z,-1.95
2023-03-08T03:37:28.720Z,-2.79
2023-03-08T03:40:00.887Z,-2.14
2023-03-08T03:42:31.474Z,-2.36
2023-03-08T03:45:01.985Z,-2.21
2023-03-08T03:47:32.733Z,-2.18
2023-03-08T03:50:03.339Z,-2.10
2023-03-08T03:52:34.100Z,-2.25
2023-03-08T03:55:06.433Z,-2.30
2023-03-08T03:57:37.292Z,-2.07
2023-03-08T04:00:09.155Z,-2.20
2023-03-08T04:02:39.820Z,-2.35
2023-03-08T04:05:10.908Z,-2.25
2023-03-08T04:07:41.398Z,-2.43
2023-03-08T04:10:15.295Z,-2.54
2023-03-08T04:12:46.009Z,-2.59
2023-03-08T04:15:16.536Z,-2.72
2023-03-08T04:17:47.183Z,-2.74
2023-03-08T04:20:17.757Z,-2.93
2023-03-08T04:22:48.258Z,-3.12
2023-03-08T04:25:20.421Z,-3.40
2023-03-08T04:27:50.949Z,-3.55
2023-03-08T04:30:21.835Z,-3.63
2023-03-08T04:32:52.413Z,-3.67
2023-03-08T04:35:23.711Z,-3.70
2023-03-08T04:37:54.160Z,-3.71
2023-03-08T04:40:26.343Z,-3.80
2023-03-08T04:42:56.858Z,-3.92
2023-03-08T04:45:27.407Z,-3.84
2023-03-08T04:47:58.019Z,-4.24
2023-03-08T04:50:30.460Z,-3.96
2023-03-08T04:53:01.027Z,-3.90
2023-03-08T04:55:33.086Z,-3.97
2023-03-08T04:58:03.584Z,-4.07
2023-03-08T05:00:34.221Z,-4.06
2023-03-08T05:03:04.713Z,-4.04
2023-03-08T05:05:35.291Z,-4.14
2023-03-08T05:08:06.258Z,-4.22
2023-03-08T05:10:52.107Z,-4.17
2023-03-08T05:13:22.753Z,-4.13
2023-03-08T05:15:53.825Z,-4.34
2023-03-08T05:21:18.503Z,-4.56
2023-03-08T05:23:49.758Z,-4.36
2023-03-08T05:26:22.515Z,-4.41
2023-03-08T05:28:53.113Z,-4.60
2023-03-08T05:31:24.778Z,-4.67
2023-03-08T05:33:55.686Z,-4.89
2023-03-08T05:36:26.429Z,-4.86
2023-03-08T05:38:57.631Z,-5.17
2023-03-08T05:41:29.868Z,-5.03
2023-03-08T05:44:00.570Z,-5.04
2023-03-08T05:46:31.936Z,-5.05
2023-03-08T05:49:02.634Z,-5.13
2023-03-08T05:51:33.198Z,-5.14
2023-03-08T05:54:03.755Z,-5.15
2023-03-08T05:56:35.975Z,-5.16
2023-03-08T05:59:06.505Z,-5.13
2023-03-08T06:01:37.913Z,-5.10
2023-03-08T06:04:11.443Z,-5.16
2023-03-08T06:06:41.842Z,-5.22
2023-03-08T06:09:12.350Z,-5.27
2023-03-08T06:11:44.458Z,-5.31
2023-03-08T06:14:14.893Z,-5.82
2023-03-08T06:16:49.289Z,-5.37
2023-03-08T06:19:19.762Z,-5.40
2023-03-08T06:21:50.320Z,-5.41
2023-03-08T06:24:20.828Z,-5.50
2023-03-08T06:26:53.896Z,-5.73
2023-03-08T06:29:24.606Z,-5.54
2023-03-08T06:31:55.159Z,-5.54
2023-03-08T06:34:25.687Z,-5.56
2023-03-08T06:36:58.921Z,-5.58
2023-03-08T06:39:31.857Z,-5.57
2023-03-08T06:42:04.955Z,-5.57
2023-03-08T06:44:35.619Z,-5.58
2023-03-08T06:47:06.364Z,-5.56
2023-03-08T06:49:37.536Z,-5.57
2023-03-08T06:52:08.636Z,-5.66
2023-03-08T06:54:39.407Z,-5.63
2023-03-08T06:57:12.009Z,-5.67
2023-03-08T06:59:42.400Z,-5.67
2023-03-08T07:02:13.497Z,-5.65
2023-03-08T07:04:44.023Z,-5.61
2023-03-08T07:07:14.375Z,-5.64
2023-03-08T07:09:44.850Z,-5.70
2023-03-08T07:12:16.858Z,-5.69
2023-03-08T07:14:47.349Z,-5.64
2023-03-08T07:17:18.514Z,-5.64
2023-03-08T07:19:49.077Z,-5.73
2023-03-08T07:22:19.515Z,-5.65
2023-03-08T07:24:50.830Z,-5.66
2023-03-08T07:27:22.882Z,-5.72
2023-03-08T07:29:55.248Z,-5.82
2023-03-08T07:32:29.698Z,-5.85
2023-03-08T07:35:00.588Z,-5.97
2023-03-08T07:37:31.149Z,-5.89
2023-03-08T07:40:01.620Z,-5.96
2023-03-08T07:42:33.818Z,-5.95
2023-03-08T07:45:04.618Z,-6.01
2023-03-08T07:47:35.093Z,-6.02
2023-03-08T07:50:05.595Z,-6.08
2023-03-08T07:52:36.122Z,-6.11
2023-03-08T07:55:06.942Z,-6.16
2023-03-08T07:57:38.975Z,-6.12
2023-03-08T08:00:11.166Z,-6.13
2023-03-08T08:02:42.211Z,-6.16
2023-03-08T08:05:17.087Z,-6.21
2023-03-08T08:07:50.044Z,-6.19
2023-03-08T08:10:46.180Z,-6.25
2023-03-08T08:13:19.006Z,-6.53
2023-03-08T08:15:49.833Z,-6.31
2023-03-08T08:18:38.546Z,-6.32
2023-03-08T08:21:11.237Z,-6.37
2023-03-08T08:23:43.532Z,-6.39
2023-03-08T08:26:19.500Z,-6.44
2023-03-08T08:28:57.177Z,-6.42
2023-03-08T08:31:32.287Z,-6.73
2023-03-08T08:34:03.935Z,-6.39
2023-03-08T08:36:37.615Z,-6.41
2023-03-08T08:39:08.609Z,-6.38
2023-03-08T08:41:39.178Z,-6.37
2023-03-08T08:44:11.514Z,-6.34
2023-03-08T08:46:42.157Z,-6.36
2023-03-08T08:49:13.358Z,-6.32
2023-03-08T08:51:44.078Z,-6.32
2023-03-08T08:54:17.880Z,-6.34
2023-03-08T08:56:48.462Z,-6.33
2023-03-08T08:59:20.761Z,-6.37
2023-03-08T09:01:51.396Z,-6.38
2023-03-08T09:04:22.230Z,-6.37
2023-03-08T09:06:54.321Z,-6.42
2023-03-08T09:09:24.995Z,-6.37
2023-03-08T09:11:56.065Z,-6.36
2023-03-08T09:14:28.349Z,-6.35
2023-03-08T09:16:59.277Z,-6.36
2023-03-08T09:19:33.121Z,-6.37
2023-03-08T09:22:03.783Z,-6.39
2023-03-08T09:24:34.650Z,-6.43
2023-03-08T09:27:07.332Z,-6.46
2023-03-08T09:29:40.154Z,-6.48
2023-03-08T09:32:11.204Z,-6.51
2023-03-08T09:34:42.358Z,-6.52
2023-03-08T09:37:14.166Z,-6.55
2023-03-08T09:39:45.539Z,-6.52
2023-03-08T09:42:24.989Z,-6.54
2023-03-08T09:45:18.981Z,-6.58
2023-03-08T09:47:54.756Z,-6.57
2023-03-08T09:50:38.735Z,-6.60
2023-03-08T09:53:21.138Z,-6.63
2023-03-08T09:55:55.765Z,-6.64
2023-03-08T09:58:37.861Z,-7.32
2023-03-08T10:01:23.575Z,-6.66
2023-03-08T10:04:18.786Z,-6.70
2023-03-08T10:06:59.441Z,-6.76
2023-03-08T10:09:36.787Z,-7.39
2023-03-08T10:12:22.142Z,-7.42
2023-03-08T10:14:58.819Z,-6.76
2023-03-08T10:17:40.427Z,-6.74
2023-03-08T10:20:23.445Z,-6.80
2023-03-08T10:23:00.303Z,-6.72
2023-03-08T10:25:34.732Z,-6.78
2023-03-08T10:28:06.936Z,-6.70
2023-03-08T10:30:39.702Z,-7.19
2023-03-08T10:33:15.232Z,-6.67
2023-03-08T10:35:58.952Z,-6.62
2023-03-08T10:38:32.019Z,-6.63
2023-03-08T10:41:04.652Z,-6.74
2023-03-08T10:43:39.132Z,-7.25
2023-03-08T10:46:15.198Z,-6.63
2023-03-08T10:48:47.798Z,-6.60
2023-03-08T10:51:23.305Z,-7.07
2023-03-08T10:54:23.655Z,-6.52
2023-03-08T10:57:01.074Z,-7.06
2023-03-08T10:59:35.327Z,-6.46
2023-03-08T11:02:23.726Z,-6.49
2023-03-08T11:04:59.678Z,-6.53
2023-03-08T11:07:33.200Z,-6.59
2023-03-08T11:10:22.094Z,-6.55
2023-03-08T11:13:03.464Z,-6.43
2023-03-08T11:15:38.661Z,-6.51
2023-03-08T11:18:23.016Z,-6.40
2023-03-08T11:21:01.680Z,-6.44
2023-03-08T11:23:40.150Z,-6.41
2023-03-08T11:26:23.244Z,-6.39
2023-03-08T11:29:09.809Z,-6.37
2023-03-08T11:31:54.325Z,-6.48
2023-03-08T11:34:54.108Z,-6.36
2023-03-08T11:37:35.257Z,-6.36
2023-03-08T11:40:20.970Z,-6.98
2023-03-08T11:43:07.640Z,-6.66
2023-03-08T11:45:47.077Z,-6.58
2023-03-08T11:48:48.452Z,-6.37
2023-03-08T11:51:25.891Z,-6.31
2023-03-08T11:54:10.905Z,-6.31
2023-03-08T11:56:49.562Z,-6.28
2023-03-08T11:59:33.280Z,-6.33
2023-03-08T12:02:15.115Z,-6.59
2023-03-08T12:04:55.161Z,-6.37
2023-03-08T12:07:33.422Z,-6.57
2023-03-08T12:10:15.811Z,-6.23
2023-03-08T12:12:52.124Z,-6.16
2023-03-08T12:15:33.390Z,-6.13
2023-03-08T12:18:13.782Z,-6.11
2023-03-08T12:20:47.705Z,-6.40
2023-03-08T12:23:29.918Z,-6.33
2023-03-08T12:26:08.759Z,-6.28
2023-03-08T12:28:45.160Z,-6.27
2023-03-08T12:31:28.171Z,-6.24
2023-03-08T12:34:02.143Z,-6.26
2023-03-08T12:36:45.147Z,-6.21
2023-03-08T12:39:33.638Z,-6.24
2023-03-08T12:42:20.274Z,-6.27
2023-03-08T12:44:51.930Z,-6.58
2023-03-08T12:47:26.490Z,-6.32
2023-03-08T12:50:00.157Z,-6.30
2023-03-08T12:52:37.284Z,-6.35
2023-03-08T12:55:21.995Z,-6.51
2023-03-08T12:57:57.370Z,-6.56
2023-03-08T13:00:34.424Z,-7.06
2023-03-08T13:03:08.704Z,-6.54
2023-03-08T13:05:41.967Z,-6.53
2023-03-08T13:08:29.653Z,-6.60
2023-03-08T13:11:18.558Z,-6.56
2023-03-08T13:13:59.050Z,-6.79
2023-03-08T13:16:39.802Z,-7.22
2023-03-08T13:19:22.291Z,-6.59
2023-03-08T13:22:02.022Z,-6.62
2023-03-08T13:24:42.314Z,-6.86
2023-03-08T13:27:26.791Z,-7.01
2023-03-08T13:30:21.648Z,-6.65
2023-03-08T13:32:54.510Z,-6.76
2023-03-08T13:35:27.032Z,-6.89
2023-03-08T13:38:00.223Z,-7.04
2023-03-08T13:40:33.449Z,-7.15
2023-03-08T13:43:09.789Z,-7.39
2023-03-08T13:45:43.519Z,-7.21
2023-03-08T13:48:17.928Z,-7.22
2023-03-08T13:50:52.880Z,-7.40
2023-03-08T13:53:28.335Z,-7.70
2023-03-08T13:56:02.994Z,-7.49
2023-03-08T13:58:37.754Z,-7.68
2023-03-08T14:01:16.348Z,-8.30
2023-03-08T14:03:48.578Z,-7.85
2023-03-08T14:06:25.504Z,-8.09
2023-03-08T14:09:00.431Z,-8.31
2023-03-08T14:11:34.936Z,-8.48
2023-03-08T14:14:10.435Z,-8.71
2023-03-08T14:16:44.795Z,-8.73
2023-03-08T14:19:28.942Z,-8.88
2023-03-08T14:22:28.692Z,-8.89
2023-03-08T14:25:12.443Z,-8.97
2023-03-08T14:27:46.443Z,-9.09
2023-03-08T14:30:20.059Z,-9.18
2023-03-08T14:33:07.408Z,-9.21
2023-03-08T14:35:41.980Z,-9.10
2023-03-08T14:38:30.159Z,-8.95
2023-03-08T14:41:15.700Z,-8.83
2023-03-08T14:43:56.289Z,-9.37
2023-03-08T14:46:38.049Z,-9.02
2023-03-08T14:49:28.541Z,-9.02
2023-03-08T14:52:01.491Z,-9.02
2023-03-08T14:54:37.081Z,-8.95
2023-03-08T14:57:23.519Z,-8.97
2023-03-08T14:59:55.532Z,-9.02
2023-03-08T15:02:29.145Z,-8.99
2023-03-08T15:05:14.258Z,-9.05
2023-03-08T15:07:48.599Z,-9.07
2023-03-08T15:10:35.357Z,-9.12
2023-03-08T15:13:09.676Z,-9.21
2023-03-08T15:15:40.305Z,-9.51
2023-03-08T15:18:10.998Z,-9.71
2023-03-08T15:20:46.962Z,-9.79
2023-03-08T15:23:25.243Z,-9.76
2023-03-08T15:25:56.146Z,-9.80
2023-03-08T15:28:27.474Z,-9.69
2023-03-08T15:31:00.785Z,-10.06
2023-03-08T15:33:35.885Z,-10.00
2023-03-08T15:36:13.869Z,-9.96
2023-03-08T15:38:56.063Z,-9.87
2023-03-08T15:45:09.017Z,-9.76
2023-03-08T15:47:44.299Z,-9.71
2023-03-08T15:50:20.512Z,-9.40
2023-03-08T15:52:57.824Z,-9.32
2023-03-08T15:55:31.753Z,-9.30
2023-03-08T15:58:04.023Z,-9.61
2023-03-08T16:00:49.872Z,-9.53
2023-03-08T16:03:31.525Z,-9.55
2023-03-08T16:06:06.433Z,-9.66
2023-03-08T16:08:40.517Z,-9.62
2023-03-08T16:11:13.314Z,-9.68
2023-03-08T16:13:49.613Z,-9.84
2023-03-08T16:16:25.919Z,-10.27
2023-03-08T16:19:03.538Z,-10.13
2023-03-08T16:21:35.898Z,-10.32
2023-03-08T16:24:14.455Z,-10.49
2023-03-08T16:26:57.413Z,-10.42
2023-03-08T16:29:29.095Z,-10.37
2023-03-08T16:32:01.675Z,-10.25
2023-03-08T16:34:33.558Z,-10.05
2023-03-08T16:37:06.447Z,-9.90
2023-03-08T16:39:38.761Z,-9.90
2023-03-08T16:42:13.368Z,-9.96
2023-03-08T16:44:44.375Z,-10.08
2023-03-08T16:47:15.050Z,-10.10
2023-03-08T16:49:48.641Z,-10.04
2023-03-08T16:52:20.528Z,-10.45
2023-03-08T16:54:52.969Z,-9.91
2023-03-08T16:57:23.715Z,-9.91
2023-03-08T17:00:01.214Z,-10.14
2023-03-08T17:02:31.925Z,-10.06
2023-03-08T17:05:39.101Z,-10.02
2023-03-08T17:08:10.987Z,-10.60
2023-03-08T17:11:09.766Z,-10.19
2023-03-08T17:13:46.430Z,-10.24
2023-03-08T17:16:18.066Z,-10.17
2023-03-08T17:18:56.204Z,-10.08
2023-03-08T17:21:30.089Z,-9.95
2023-03-08T17:24:01.946Z,-10.07
2023-03-08T17:26:39.921Z,-10.00
2023-03-08T17:29:19.425Z,-9.96
2023-03-08T17:31:56.170Z,-9.95
2023-03-08T17:34:28.380Z,-9.99
2023-03-08T17:37:03.113Z,-10.18
2023-03-08T17:39:38.705Z,-10.36
2023-03-08T17:42:12.220Z,-10.46
2023-03-08T17:44:49.636Z,-10.39
2023-03-08T17:47:20.764Z,-10.27
2023-03-08T17:49:54.777Z,-10.33
2023-03-08T17:52:32.332Z,-10.29
2023-03-08T17:55:05.939Z,-10.27
2023-03-08T17:57:42.493Z,-10.23
2023-03-08T18:00:15.356Z,-10.02
2023-03-08T18:02:48.528Z,-10.10
2023-03-08T18:05:20.164Z,-10.05
2023-03-08T18:07:52.578Z,-10.04
2023-03-08T18:10:26.960Z,-10.26
2023-03-08T18:13:04.602Z,-10.36
2023-03-08T18:15:38.386Z,-10.38
2023-03-08T18:18:15.955Z,-10.44
2023-03-08T18:20:55.329Z,-10.50
2023-03-08T18:23:31.661Z,-10.56
2023-03-08T18:26:07.363Z,-11.02
2023-03-08T18:28:41.492Z,-11.43
2023-03-08T18:31:17.855Z,-11.73
2023-03-08T18:33:54.458Z,-11.91
2023-03-08T18:36:30.457Z,-11.91
2023-03-08T18:39:04.875Z,-12.02
2023-03-08T18:41:39.240Z,-12.17
2023-03-08T18:44:15.400Z,-12.07
2023-03-08T18:46:54.477Z,-11.97
2023-03-08T18:49:29.774Z,-11.83
2023-03-08T18:52:01.712Z,-11.66
2023-03-08T18:54:34.012Z,-11.78
2023-03-08T18:57:09.777Z,-12.24
2023-03-08T18:59:49.861Z,-12.11
2023-03-08T19:02:22.055Z,-12.30
2023-03-08T19:04:52.610Z,-12.46
2023-03-08T19:07:23.053Z,-12.57
2023-03-08T19:09:56.864Z,-12.66
2023-03-08T19:12:28.095Z,-12.75
2023-03-08T19:15:03.067Z,-12.84
2023-03-08T19:17:33.684Z,-13.04
2023-03-08T19:20:06.595Z,-12.79
2023-03-08T19:22:37.081Z,-12.73
2023-03-08T19:25:10.964Z,-12.64
2023-03-08T19:27:41.417Z,-12.44
2023-03-08T19:30:14.795Z,-12.24
2023-03-08T19:32:45.351Z,-12.24
2023-03-08T19:35:15.916Z,-12.37
2023-03-08T19:37:46.425Z,-12.48
2023-03-08T19:40:17.238Z,-12.64
2023-03-08T19:42:55.784Z,-12.59
2023-03-08T19:45:27.860Z,-12.40
2023-03-08T19:48:03.252Z,-12.25
2023-03-08T19:50:35.920Z,-12.38
2023-03-08T19:53:06.452Z,-12.69
2023-03-08T19:55:36.946Z,-12.86
2023-03-08T19:58:16.129Z,-12.90
2023-03-08T20:00:48.941Z,-12.78
2023-03-08T20:03:20.235Z,-12.70
2023-03-08T20:05:51.063Z,-12.81
2023-03-08T20:08:21.569Z,-12.85
2023-03-08T20:10:52.898Z,-13.07
2023-03-08T20:13:23.569Z,-13.02
2023-03-08T20:15:55.693Z,-12.95
2023-03-08T20:18:26.610Z,-12.95
2023-03-08T20:20:59.304Z,-12.86
2023-03-08T20:23:29.794Z,-12.95
2023-03-08T20:26:00.254Z,-12.76
2023-03-08T20:28:31.041Z,-12.90
2023-03-08T20:31:03.075Z,-12.96
2023-03-08T20:33:33.572Z,-13.47
2023-03-08T20:36:04.374Z,-13.58
2023-03-08T20:38:34.993Z,-13.60
2023-03-08T20:41:10.400Z,-13.72
2023-03-08T20:43:41.632Z,-13.71
2023-03-08T20:46:14.914Z,-14.28
2023-03-08T20:48:46.782Z,-14.12
2023-03-08T20:51:18.633Z,-14.03
2023-03-08T20:53:52.138Z,-14.13
2023-03-08T20:56:24.112Z,-14.04
2023-03-08T20:58:56.055Z,-13.81
2023-03-08T21:01:31.655Z,-13.62
2023-03-08T21:04:02.324Z,-13.72
2023-03-08T21:06:34.294Z,-13.87
2023-03-08T21:09:05.088Z,-13.98
2023-03-08T21:11:36.604Z,-14.10
2023-03-08T21:14:07.274Z,-14.14
2023-03-08T21:16:39.534Z,-14.43
2023-03-08T21:19:10.247Z,-14.25
2023-03-08T21:21:42.724Z,-14.28
2023-03-08T21:24:15.526Z,-14.19
2023-03-08T21:26:46.177Z,-14.23
2023-03-08T21:29:18.304Z,-14.20
2023-03-08T21:31:52.088Z,-14.19
2023-03-08T21:34:22.960Z,-13.63
2023-03-08T21:36:54.151Z,-13.41
2023-03-08T21:39:27.298Z,-13.10
2023-03-08T21:41:59.873Z,-12.66
2023-03-08T21:44:31.974Z,-13.13
2023-03-08T21:47:04.237Z,-12.38
2023-03-08T21:49:35.964Z,-12.89
2023-03-08T21:52:07.158Z,-12.72
2023-03-08T21:54:37.638Z,-12.68
2023-03-08T21:57:08.644Z,-12.67
2023-03-08T21:59:39.145Z,-12.63
2023-03-08T22:02:12.865Z,-13.28
2023-03-08T22:04:43.456Z,-12.12
2023-03-08T22:07:13.980Z,-11.87
2023-03-08T22:09:44.456Z,-11.68
2023-03-08T22:12:15.753Z,-11.49
2023-03-08T22:14:46.286Z,-11.24
2023-03-08T22:17:18.353Z,-10.91
2023-03-08T22:19:49.057Z,-10.57
2023-03-08T22:22:20.107Z,-10.28
2023-03-08T22:24:50.814Z,-9.97
2023-03-08T22:27:21.348Z,-9.84
2023-03-08T22:29:52.432Z,-10.08
2023-03-08T22:32:24.855Z,-10.50
2023-03-08T22:34:55.302Z,-10.76
2023-03-08T22:37:25.896Z,-10.96
2023-03-08T22:39:56.645Z,-11.12
2023-03-08T22:42:27.172Z,-10.27
2023-03-08T22:44:57.632Z,-9.92
2023-03-08T22:47:30.389Z,-9.82
2023-03-08T22:50:00.932Z,-9.67
2023-03-08T22:52:31.577Z,-9.80
2023-03-08T22:55:02.157Z,-10.05
2023-03-08T22:57:32.732Z,-9.80
2023-03-08T23:00:03.180Z,-9.37
2023-03-08T23:02:35.878Z,-9.10
2023-03-08T23:05:06.409Z,-8.88
2023-03-08T23:07:36.873Z,-8.73
2023-03-08T23:10:08.023Z,-8.46
2023-03-08T23:12:38.571Z,-8.14
2023-03-08T23:15:10.679Z,-8.64
2023-03-08T23:17:42.687Z,-7.20
2023-03-08T23:20:14.448Z,-6.95
2023-03-08T23:22:45.278Z,-6.49
2023-03-08T23:25:16.030Z,-6.10
2023-03-08T23:27:46.904Z,-5.72
2023-03-08T23:30:19.621Z,-5.80
2023-03-08T23:32:51.867Z,-5.76
2023-03-08T23:35:22.774Z,-5.54
2023-03-08T23:37:53.506Z,-5.24
2023-03-08T23:40:24.026Z,-4.92
2023-03-08T23:42:54.568Z,-4.66
2023-03-08T23:45:25.187Z,-4.40
2023-03-08T23:47:57.552Z,-4.15
2023-03-08T23:50:28.045Z,-4.12
2023-03-08T23:52:58.576Z,-3.94
2023-03-08T23:55:29.213Z,-3.79
2023-03-08T23:57:59.794Z,-3.86
